SEAM/ATF METAR and TAF weather

Enter ICAO airport designator
Station Type Date Time Source
SEAM METAR 2018/12/14 19:00 UTC NOAA

SEAM 141900Z 00000KT 9999 SCT033 BKN100 19/13 Q1027


Station Type Date Time Source
SEAM Decoded METAR 2018/12/14 19:00 UTC NOAA

Ambato / Chachoan, Ecuador (SEAM) 01-12S 078-34W
Dec 14, 2018 - 02:00 PM EST / 2018.12.14 1900 UTC
Wind: Calm:0
Visibility: greater than 7 mile(s):0
Sky conditions: mostly cloudy
Temperature: 66 F (19 C)
Dew Point: 55 F (13 C)
Relative Humidity: 68%
Pressure (altimeter): 30.33 in. Hg (1027 hPa)
ob: SEAM 141900Z 00000KT 9999 SCT033 BKN100 19/13 Q1027
cycle: 19

Station Type Date Time Source
SEAM TAF UTC NOAA

Error!


Example: see airport list